Time;durP1;ratioP1;P1;durP2;ratioP2;P2;SDS_P1;SDS_P2;PMS_P1;PMS_P2;Temp;Humidity;BMP_temperature;BMP_pressure;BME280_temperature;BME280_humidity;BME280_pressure;Samples;Min_cycle;Max_cycle;Signal;HPM_P1;HPM_P2
2022/10/26 00:00:30;;;;;;;;;;;24.10;99.90;;;;;;5136322;27;20319;-75
2022/10/26 00:02:57;;;;;;;;;;;24.10;99.90;;;;;;5135267;27;19919;-74
2022/10/26 00:05:24;;;;;;;;;;;24.00;99.90;;;;;;5135900;27;19930;-76
2022/10/26 00:07:53;;;;;;;;;;;23.90;99.90;;;;;;5135769;27;19907;-70
2022/10/26 00:10:20;;;;;;;;;;;23.80;99.90;;;;;;5135871;27;19907;-76
2022/10/26 00:12:50;;;;;;;;;;;23.90;99.90;;;;;;5134850;27;19907;-76
2022/10/26 00:15:17;;;;;;;;;;;24.00;99.90;;;;;;5135694;27;19915;-68
2022/10/26 00:17:44;;;;;;;;;;;24.20;99.90;;;;;;5135675;27;19919;-70
2022/10/26 00:20:11;;;;;;;;;;;24.30;99.90;;;;;;5135642;27;19911;-70
2022/10/26 00:22:38;;;;;;;;;;;24.30;99.90;;;;;;5135516;27;19977;-76
2022/10/26 00:25:05;;;;;;;;;;;24.20;99.90;;;;;;5135097;27;19926;-73
2022/10/26 00:27:35;;;;;;;;;;;24.20;99.90;;;;;;5135618;27;19930;-73
2022/10/26 00:30:03;;;;;;;;;;;24.20;99.90;;;;;;5135487;27;19932;-76
2022/10/26 00:32:30;;;;;;;;;;;24.20;99.90;;;;;;5135373;27;20258;-74
2022/10/26 00:34:56;;;;;;;;;;;24.10;99.90;;;;;;5134923;27;20006;-75
2022/10/26 00:37:23;;;;;;;;;;;24.10;99.90;;;;;;5135472;27;19969;-73
2022/10/26 00:39:49;;;;;;;;;;;24.00;99.90;;;;;;5135374;27;20373;-76
2022/10/26 00:42:20;;;;;;;;;;;23.90;99.90;;;;;;5135243;27;20005;-74
2022/10/26 00:44:47;;;;;;;;;;;23.80;99.90;;;;;;5134520;27;20061;-71
2022/10/26 00:47:13;;;;;;;;;;;23.80;99.90;;;;;;5135087;27;20463;-74
2022/10/26 00:49:40;;;;;;;;;;;23.80;99.90;;;;;;5135390;27;19935;-70
2022/10/26 00:52:08;;;;;;;;;;;23.90;99.90;;;;;;5135187;27;19973;-75
2022/10/26 00:54:34;;;;;;;;;;;23.90;99.90;;;;;;5134601;27;19911;-76
2022/10/26 00:57:01;;;;;;;;;;;24.00;99.90;;;;;;5134921;27;20365;-70
2022/10/26 00:59:28;;;;;;;;;;;24.00;99.90;;;;;;5134818;27;19907;-73
2022/10/26 01:01:54;;;;;;;;;;;24.00;99.90;;;;;;5134838;27;19919;-75
2022/10/26 01:04:21;;;;;;;;;;;23.90;99.90;;;;;;5134237;27;20013;-73
2022/10/26 01:06:48;;;;;;;;;;;23.80;99.90;;;;;;5134337;27;19961;-68
2022/10/26 01:09:16;;;;;;;;;;;23.80;99.90;;;;;;5134534;27;19912;-70
2022/10/26 01:11:42;;;;;;;;;;;23.80;99.90;;;;;;5134772;27;19911;-70
2022/10/26 01:14:11;;;;;;;;;;;23.90;99.90;;;;;;5134314;27;19911;-71
2022/10/26 01:16:38;;;;;;;;;;;24.00;99.90;;;;;;5134771;27;19911;-73
2022/10/26 01:19:22;;;;;;;;;;;24.00;99.90;;;;;;5134269;27;19912;-70
2022/10/26 01:21:52;;;;;;;;;;;24.00;99.90;;;;;;5134489;27;19911;-71
2022/10/26 01:24:28;;;;;;;;;;;24.10;99.90;;;;;;5133272;27;19912;-73
2022/10/26 01:26:58;;;;;;;;;;;24.40;99.90;;;;;;5134384;27;19916;-70
2022/10/26 01:29:35;;;;;;;;;;;24.50;99.90;;;;;;5134389;27;19960;-73
2022/10/26 01:32:19;;;;;;;;;;;24.50;99.90;;;;;;5134411;27;19939;-75
2022/10/26 01:34:55;;;;;;;;;;;24.40;99.90;;;;;;5133750;27;19919;-70
2022/10/26 01:37:26;;;;;;;;;;;24.40;99.90;;;;;;5134199;27;19947;-74
2022/10/26 01:39:54;;;;;;;;;;;24.50;99.90;;;;;;5134323;27;19911;-69
2022/10/26 01:42:22;;;;;;;;;;;24.60;99.90;;;;;;5133918;27;19919;-71
2022/10/26 01:44:52;;;;;;;;;;;24.60;99.90;;;;;;5133198;27;19924;-73
2022/10/26 01:47:20;;;;;;;;;;;24.60;99.90;;;;;;5115287;27;19907;-70
2022/10/26 01:49:57;;;;;;;;;;;24.50;99.90;;;;;;5133797;27;19968;-69
2022/10/26 01:52:24;;;;;;;;;;;24.60;99.90;;;;;;5133811;27;20013;-75
2022/10/26 01:54:51;;;;;;;;;;;24.70;99.90;;;;;;5133260;27;19907;-67
2022/10/26 01:57:19;;;;;;;;;;;24.80;99.90;;;;;;5098367;27;19908;-70
2022/10/26 01:59:46;;;;;;;;;;;24.90;99.90;;;;;;5133644;27;20044;-73
2022/10/26 02:02:25;;;;;;;;;;;25.00;99.90;;;;;;5133780;27;19994;-68
2022/10/26 02:05:00;;;;;;;;;;;25.20;99.90;;;;;;5133169;27;19915;-73
2022/10/26 02:07:47;;;;;;;;;;;25.30;99.90;;;;;;5133609;27;19933;-75
2022/10/26 02:10:24;;;;;;;;;;;25.30;99.80;;;;;;5118475;27;19994;-70
2022/10/26 02:12:54;;;;;;;;;;;25.30;99.80;;;;;;5133040;27;19911;-72
2022/10/26 02:15:41;;;;;;;;;;;25.30;98.90;;;;;;5133429;27;19994;-70
2022/10/26 02:18:21;;;;;;;;;;;25.50;98.70;;;;;;5133132;27;19915;-73
2022/10/26 02:20:50;;;;;;;;;;;25.50;98.80;;;;;;5133301;27;19920;-68
2022/10/26 02:23:18;;;;;;;;;;;25.50;98.80;;;;;;5132869;27;19958;-72
2022/10/26 02:25:49;;;;;;;;;;;25.50;98.50;;;;;;5133248;27;19931;-68
2022/10/26 02:28:20;;;;;;;;;;;25.60;97.10;;;;;;5133240;27;19907;-69
2022/10/26 02:30:49;;;;;;;;;;;25.60;97.60;;;;;;5132828;27;19908;-74
2022/10/26 02:33:16;;;;;;;;;;;25.70;97.60;;;;;;5132889;27;19996;-75
2022/10/26 02:35:47;;;;;;;;;;;25.80;96.60;;;;;;5132662;27;19914;-69
2022/10/26 02:38:16;;;;;;;;;;;25.80;96.90;;;;;;5133126;27;19932;-72
2022/10/26 02:40:43;;;;;;;;;;;25.80;96.20;;;;;;5133175;27;19930;-74
2022/10/26 02:43:14;;;;;;;;;;;25.70;97.10;;;;;;5131083;27;19924;-74
2022/10/26 02:46:10;;;;;;;;;;;25.70;96.30;;;;;;5135730;27;20053;-72
2022/10/26 02:48:37;;;;;;;;;;;25.70;96.60;;;;;;5132982;27;20277;-73
2022/10/26 02:51:23;;;;;;;;;;;25.80;95.80;;;;;;5132939;28;19914;-77
2022/10/26 02:53:57;;;;;;;;;;;25.90;96.30;;;;;;5132476;28;20002;-76
2022/10/26 02:56:35;;;;;;;;;;;26.00;96.00;;;;;;5132947;27;20400;-77
2022/10/26 02:59:03;;;;;;;;;;;26.00;96.60;;;;;;5132715;28;20373;-77
2022/10/26 03:01:31;;;;;;;;;;;26.10;95.90;;;;;;5132665;28;19911;-71
2022/10/26 03:03:58;;;;;;;;;;;26.00;96.00;;;;;;5132442;28;19908;-75
2022/10/26 03:06:25;;;;;;;;;;;25.90;96.10;;;;;;5132915;28;19926;-77
2022/10/26 03:08:52;;;;;;;;;;;26.00;96.40;;;;;;5132738;28;19998;-77
2022/10/26 03:11:18;;;;;;;;;;;26.00;95.80;;;;;;5132668;28;19912;-76
2022/10/26 03:13:45;;;;;;;;;;;26.00;96.00;;;;;;5132536;28;19914;-73
2022/10/26 03:16:12;;;;;;;;;;;26.20;95.50;;;;;;5132690;28;19914;-76
2022/10/26 03:18:38;;;;;;;;;;;26.30;95.80;;;;;;5132639;28;20000;-77
2022/10/26 03:21:05;;;;;;;;;;;26.30;94.60;;;;;;5132309;28;19998;-75
2022/10/26 03:23:32;;;;;;;;;;;26.30;94.90;;;;;;5132389;27;19907;-76
2022/10/26 03:25:59;;;;;;;;;;;26.30;95.20;;;;;;5132369;27;19972;-73
2022/10/26 03:28:26;;;;;;;;;;;26.30;94.90;;;;;;5132633;27;19952;-76
2022/10/26 03:30:53;;;;;;;;;;;26.30;96.50;;;;;;5132161;28;19918;-76
2022/10/26 03:33:19;;;;;;;;;;;26.20;95.60;;;;;;5132266;28;19961;-71
2022/10/26 03:35:46;;;;;;;;;;;26.20;95.60;;;;;;5132762;28;20332;-74
2022/10/26 03:38:13;;;;;;;;;;;26.20;95.60;;;;;;5132583;28;19911;-74
2022/10/26 03:40:40;;;;;;;;;;;26.20;95.40;;;;;;5132428;27;19987;-70
2022/10/26 03:43:07;;;;;;;;;;;26.20;94.80;;;;;;5131727;28;19965;-76
2022/10/26 03:45:33;;;;;;;;;;;26.20;95.50;;;;;;5132233;27;19916;-73
2022/10/26 03:48:00;;;;;;;;;;;26.20;95.80;;;;;;5133400;27;19915;-71
2022/10/26 03:50:26;;;;;;;;;;;26.10;95.50;;;;;;5136186;27;20010;-74
2022/10/26 03:52:53;;;;;;;;;;;26.20;95.70;;;;;;5135642;27;19941;-72
2022/10/26 03:55:20;;;;;;;;;;;26.30;97.00;;;;;;5135946;27;19980;-76
2022/10/26 03:57:46;;;;;;;;;;;26.20;96.40;;;;;;5136226;27;19922;-75
2022/10/26 04:00:14;;;;;;;;;;;26.20;95.40;;;;;;5136198;27;20373;-76
2022/10/26 04:02:41;;;;;;;;;;;26.30;95.90;;;;;;5135675;27;19954;-75
2022/10/26 04:05:08;;;;;;;;;;;26.20;97.00;;;;;;5135682;27;19959;-75
2022/10/26 04:07:35;;;;;;;;;;;26.20;95.50;;;;;;5135632;27;19912;-72
2022/10/26 04:10:02;;;;;;;;;;;26.10;95.40;;;;;;5135958;27;19907;-77
2022/10/26 04:12:28;;;;;;;;;;;26.10;95.40;;;;;;5135847;27;19918;-75
2022/10/26 04:14:56;;;;;;;;;;;26.20;94.90;;;;;;5135609;27;19960;-76
2022/10/26 04:17:24;;;;;;;;;;;26.10;95.50;;;;;;5135518;27;19950;-76
2022/10/26 04:19:50;;;;;;;;;;;26.10;96.30;;;;;;5135847;27;19907;-75
2022/10/26 04:22:17;;;;;;;;;;;26.00;95.80;;;;;;5135950;27;19912;-74
2022/10/26 04:24:44;;;;;;;;;;;26.00;95.50;;;;;;5134920;27;19972;-74
2022/10/26 04:27:10;;;;;;;;;;;26.10;96.00;;;;;;5135360;27;19907;-74
2022/10/26 04:29:37;;;;;;;;;;;26.10;95.20;;;;;;5135577;27;19911;-76
2022/10/26 04:32:06;;;;;;;;;;;26.20;95.00;;;;;;5135490;27;19962;-76
2022/10/26 04:34:32;;;;;;;;;;;26.30;94.50;;;;;;5116993;27;19907;-76
2022/10/26 04:36:59;;;;;;;;;;;26.20;94.40;;;;;;5135401;27;19907;-76
2022/10/26 04:39:26;;;;;;;;;;;26.30;94.00;;;;;;5135658;27;19985;-77
2022/10/26 04:41:53;;;;;;;;;;;26.30;94.40;;;;;;5135610;27;19907;-76
2022/10/26 04:44:20;;;;;;;;;;;26.30;94.20;;;;;;5135285;27;19936;-76
2022/10/26 04:46:47;;;;;;;;;;;26.30;94.60;;;;;;5135934;27;19907;-77
2022/10/26 04:49:13;;;;;;;;;;;26.30;94.80;;;;;;5136214;27;19908;-73
2022/10/26 04:51:40;;;;;;;;;;;26.20;95.20;;;;;;5136068;27;19917;-76
2022/10/26 06:23:19;;;;;;;;;;;26.30;94.30;;;;;;5107409;27;19916;-73
2022/10/26 06:25:57;;;;;;;;;;;26.30;94.90;;;;;;5107963;28;19970;-79
2022/10/26 06:28:29;;;;;;;;;;;26.20;95.50;;;;;;5107438;28;19915;-79
2022/10/26 06:30:56;;;;;;;;;;;26.00;95.70;;;;;;5107398;28;20336;-81
2022/10/26 06:33:23;;;;;;;;;;;25.90;95.90;;;;;;5107218;28;19916;-80
2022/10/26 06:35:58;;;;;;;;;;;25.70;95.80;;;;;;5107616;28;19969;-80
2022/10/26 06:38:27;;;;;;;;;;;25.70;96.20;;;;;;5107655;28;20372;-76
2022/10/26 06:40:55;;;;;;;;;;;25.60;95.90;;;;;;5107635;28;20486;-77
2022/10/26 06:43:31;;;;;;;;;;;25.60;96.10;;;;;;5106977;28;20445;-78
2022/10/26 06:46:05;;;;;;;;;;;25.70;96.20;;;;;;5107567;28;20331;-76
2022/10/26 06:48:34;;;;;;;;;;;25.70;95.90;;;;;;5107359;28;19912;-73
2022/10/26 06:51:01;;;;;;;;;;;25.80;95.50;;;;;;5107330;28;19914;-78
2022/10/26 06:53:30;;;;;;;;;;;25.80;96.10;;;;;;5107269;28;20010;-81
2022/10/26 06:55:58;;;;;;;;;;;25.70;96.50;;;;;;5107379;28;20373;-80
2022/10/26 06:58:29;;;;;;;;;;;25.70;96.90;;;;;;5105603;28;20294;-80
2022/10/26 07:00:57;;;;;;;;;;;25.70;95.90;;;;;;5106883;28;19928;-79
2022/10/26 07:03:23;;;;;;;;;;;25.80;94.80;;;;;;5107050;28;19912;-78
2022/10/26 07:05:50;;;;;;;;;;;25.80;95.10;;;;;;5107294;28;19912;-79
2022/10/26 07:08:17;;;;;;;;;;;25.80;94.10;;;;;;5107660;28;20675;-79
2022/10/26 07:10:43;;;;;;;;;;;25.80;94.10;;;;;;5107517;28;20419;-77
2022/10/26 07:13:10;;;;;;;;;;;25.70;94.30;;;;;;5105976;28;19908;-77
2022/10/26 07:15:38;;;;;;;;;;;25.60;94.40;;;;;;5107012;28;19915;-81
2022/10/26 07:18:06;;;;;;;;;;;25.50;94.90;;;;;;5107029;28;20637;-79
2022/10/26 07:20:35;;;;;;;;;;;25.30;94.70;;;;;;5107128;28;19911;-80
2022/10/26 07:23:02;;;;;;;;;;;25.20;95.40;;;;;;5086156;28;19979;-79
2022/10/26 07:25:29;;;;;;;;;;;25.10;95.70;;;;;;5086371;28;20672;-80
2022/10/26 07:27:59;;;;;;;;;;;25.10;95.90;;;;;;5085949;28;19973;-74
2022/10/26 07:30:26;;;;;;;;;;;25.00;96.10;;;;;;5086453;28;19924;-80
2022/10/26 07:33:00;;;;;;;;;;;24.90;96.00;;;;;;5081014;28;19976;-79
2022/10/26 07:35:26;;;;;;;;;;;24.80;95.80;;;;;;5073165;28;20282;-81
2022/10/26 07:38:03;;;;;;;;;;;24.80;96.50;;;;;;5072944;28;20681;-80
2022/10/26 07:40:29;;;;;;;;;;;24.80;96.00;;;;;;5072653;28;19912;-80
2022/10/26 07:42:57;;;;;;;;;;;24.60;96.50;;;;;;5071602;28;20395;-78
2022/10/26 07:45:24;;;;;;;;;;;24.60;96.20;;;;;;5072612;28;20247;-80
2022/10/26 07:47:51;;;;;;;;;;;24.50;96.60;;;;;;5072815;28;19913;-77
2022/10/26 07:50:17;;;;;;;;;;;24.50;96.80;;;;;;5072812;28;19912;-80
2022/10/26 07:52:44;;;;;;;;;;;24.50;96.60;;;;;;5072303;28;19908;-76
2022/10/26 07:55:11;;;;;;;;;;;24.50;96.90;;;;;;5072828;28;19957;-75
2022/10/26 07:57:38;;;;;;;;;;;24.40;96.80;;;;;;5071836;28;19956;-79
2022/10/26 08:00:06;;;;;;;;;;;24.40;96.90;;;;;;5072358;28;19930;-76
2022/10/26 08:02:33;;;;;;;;;;;24.30;96.90;;;;;;5072126;28;20434;-77
2022/10/26 08:05:00;;;;;;;;;;;24.40;96.70;;;;;;5071734;28;19912;-80
2022/10/26 08:07:27;;;;;;;;;;;24.50;96.80;;;;;;5072284;28;19908;-75
2022/10/26 08:09:53;;;;;;;;;;;24.40;97.20;;;;;;5072323;28;19912;-80
2022/10/26 08:12:20;;;;;;;;;;;24.40;97.20;;;;;;5073448;28;20351;-81
2022/10/26 08:14:47;;;;;;;;;;;24.30;97.50;;;;;;5073699;28;20070;-78
2022/10/26 08:17:14;;;;;;;;;;;24.30;97.80;;;;;;5073903;28;19909;-80
2022/10/26 08:19:40;;;;;;;;;;;24.30;97.60;;;;;;5073477;28;19908;-80
2022/10/26 08:22:07;;;;;;;;;;;24.30;97.70;;;;;;5086025;28;20243;-77
2022/10/26 08:24:34;;;;;;;;;;;24.30;97.80;;;;;;5094117;28;19908;-78
2022/10/26 08:27:00;;;;;;;;;;;24.20;98.00;;;;;;5093955;28;19908;-79
2022/10/26 08:29:27;;;;;;;;;;;24.20;98.40;;;;;;5093654;28;20281;-80
2022/10/26 08:31:55;;;;;;;;;;;24.10;98.10;;;;;;5093797;28;19924;-79
2022/10/26 08:34:22;;;;;;;;;;;24.10;98.00;;;;;;5093508;28;20380;-78
2022/10/26 08:36:49;;;;;;;;;;;24.10;98.10;;;;;;5093810;28;19908;-78
2022/10/26 08:39:16;;;;;;;;;;;24.10;98.20;;;;;;5093825;28;19916;-80
2022/10/26 08:41:44;;;;;;;;;;;24.00;98.40;;;;;;5093871;28;19951;-80
2022/10/26 08:44:46;;;;;;;;;;;24.00;98.40;;;;;;5092657;28;20389;-79
2022/10/26 08:47:23;;;;;;;;;;;24.00;98.70;;;;;;5071005;28;19967;-80
2022/10/26 08:49:53;;;;;;;;;;;23.90;98.60;;;;;;5090685;28;19915;-79
2022/10/26 08:52:24;;;;;;;;;;;24.00;98.40;;;;;;5093364;28;19912;-80
2022/10/26 08:54:52;;;;;;;;;;;24.00;99.90;;;;;;5093518;28;19918;-79
2022/10/26 08:57:21;;;;;;;;;;;24.10;98.60;;;;;;5093376;28;19911;-80
2022/10/26 08:59:53;;;;;;;;;;;24.00;99.10;;;;;;5093264;28;19916;-79
2022/10/26 09:02:20;;;;;;;;;;;24.00;99.50;;;;;;5093095;28;19920;-79
2022/10/26 09:04:47;;;;;;;;;;;24.10;99.40;;;;;;5093236;28;19916;-77
2022/10/26 09:07:22;;;;;;;;;;;24.00;98.80;;;;;;5093205;28;20259;-79
2022/10/26 09:09:55;;;;;;;;;;;24.00;99.80;;;;;;5093346;28;19908;-79
2022/10/26 09:12:40;;;;;;;;;;;24.00;99.30;;;;;;5093081;28;20282;-79
2022/10/26 09:15:12;;;;;;;;;;;24.00;99.40;;;;;;5092920;28;19914;-79
2022/10/26 09:17:51;;;;;;;;;;;24.00;99.10;;;;;;5093072;28;19909;-78
2022/10/26 09:20:35;;;;;;;;;;;24.00;99.50;;;;;;5092880;28;20356;-77
2022/10/26 09:23:12;;;;;;;;;;;24.00;99.10;;;;;;5092165;28;19930;-79
2022/10/26 09:25:39;;;;;;;;;;;24.00;99.20;;;;;;5093020;28;19912;-78
2022/10/26 09:28:13;;;;;;;;;;;24.00;99.20;;;;;;5092897;28;20721;-79
2022/10/26 09:30:40;;;;;;;;;;;23.90;99.40;;;;;;5093092;28;19912;-79
2022/10/26 09:33:23;;;;;;;;;;;23.90;99.60;;;;;;5092501;28;19909;-77
2022/10/26 09:36:02;;;;;;;;;;;23.90;99.30;;;;;;5092614;28;19955;-80
2022/10/26 09:38:33;;;;;;;;;;;23.80;99.90;;;;;;5092881;28;19961;-79
2022/10/26 09:41:00;;;;;;;;;;;23.70;99.80;;;;;;5092571;28;20275;-79
2022/10/26 09:43:29;;;;;;;;;;;23.60;99.60;;;;;;5089759;28;19969;-79
2022/10/26 09:45:56;;;;;;;;;;;23.70;99.50;;;;;;5089182;28;20011;-80
2022/10/26 09:48:38;;;;;;;;;;;23.70;99.50;;;;;;5084121;28;20035;-79
2022/10/26 09:51:04;;;;;;;;;;;23.70;99.60;;;;;;5082730;28;20437;-78
2022/10/26 09:53:34;;;;;;;;;;;23.70;99.60;;;;;;5084174;28;19911;-77
2022/10/26 09:56:04;;;;;;;;;;;23.70;99.90;;;;;;5084191;28;19923;-80
2022/10/26 09:58:32;;;;;;;;;;;23.60;99.90;;;;;;5083776;28;19912;-79
2022/10/26 10:00:59;;;;;;;;;;;23.60;99.90;;;;;;5083626;28;19920;-79
2022/10/26 10:03:32;;;;;;;;;;;23.60;99.90;;;;;;5084196;28;20017;-78
2022/10/26 10:06:19;;;;;;;;;;;23.50;99.90;;;;;;5084097;28;20374;-77
2022/10/26 10:09:04;;;;;;;;;;;23.60;99.90;;;;;;5083866;28;19934;-76
2022/10/26 10:11:39;;;;;;;;;;;23.50;99.90;;;;;;5084149;28;19912;-78
2022/10/26 10:14:13;;;;;;;;;;;23.50;99.90;;;;;;5083357;28;19912;-79
2022/10/26 10:16:41;;;;;;;;;;;23.40;99.90;;;;;;5084128;28;19962;-78
2022/10/26 10:19:20;;;;;;;;;;;23.40;99.90;;;;;;5083552;28;20362;-78
2022/10/26 10:21:50;;;;;;;;;;;23.30;99.90;;;;;;5084010;28;19931;-78
2022/10/26 10:24:22;;;;;;;;;;;23.30;99.90;;;;;;5083926;28;19912;-78
2022/10/26 10:26:56;;;;;;;;;;;23.30;99.90;;;;;;5083680;28;19913;-76
2022/10/26 10:29:27;;;;;;;;;;;23.20;99.90;;;;;;5083733;28;19916;-76
2022/10/26 10:31:59;;;;;;;;;;;23.20;99.90;;;;;;5083774;28;19916;-77
2022/10/26 10:34:26;;;;;;;;;;;23.10;99.90;;;;;;5084310;28;20146;-78
2022/10/26 10:36:53;;;;;;;;;;;23.10;99.90;;;;;;5083313;28;19957;-77
2022/10/26 10:39:40;;;;;;;;;;;23.10;99.90;;;;;;5083491;28;20328;-79
2022/10/26 10:42:23;;;;;;;;;;;23.10;99.90;;;;;;5083159;28;19924;-77
2022/10/26 10:44:51;;;;;;;;;;;23.10;99.90;;;;;;5083613;28;19919;-77
2022/10/26 10:47:22;;;;;;;;;;;23.00;99.90;;;;;;5083601;28;20374;-73
2022/10/26 10:50:00;;;;;;;;;;;23.00;99.90;;;;;;5084138;28;19972;-75
2022/10/26 10:52:31;;;;;;;;;;;23.00;99.90;;;;;;5082982;28;19994;-76
2022/10/26 10:55:04;;;;;;;;;;;23.00;99.90;;;;;;5083521;28;19916;-78
2022/10/26 10:57:38;;;;;;;;;;;23.10;99.90;;;;;;5083440;28;20021;-77
2022/10/26 11:00:05;;;;;;;;;;;23.00;99.90;;;;;;5083420;28;19932;-76
2022/10/26 11:02:50;;;;;;;;;;;23.00;99.90;;;;;;5082969;28;20215;-77
2022/10/26 11:05:21;;;;;;;;;;;23.00;99.90;;;;;;5083064;28;20418;-77
2022/10/26 11:07:54;;;;;;;;;;;23.00;99.90;;;;;;5083914;28;19919;-77
2022/10/26 11:10:24;;;;;;;;;;;22.90;99.90;;;;;;5087315;28;19986;-76
2022/10/26 11:12:56;;;;;;;;;;;22.90;99.90;;;;;;5086537;28;19948;-78
2022/10/26 11:15:25;;;;;;;;;;;22.90;99.90;;;;;;5087450;28;19959;-78
2022/10/26 11:17:58;;;;;;;;;;;22.80;99.90;;;;;;5087099;28;19912;-77
2022/10/26 11:20:26;;;;;;;;;;;22.80;99.90;;;;;;5087221;28;19912;-73
2022/10/26 11:22:57;;;;;;;;;;;22.80;99.70;;;;;;5086333;28;20042;-76
2022/10/26 11:25:27;;;;;;;;;;;22.80;99.90;;;;;;5087283;28;19912;-74
2022/10/26 11:28:26;;;;;;;;;;;22.80;99.80;;;;;;5087042;28;19916;-75
2022/10/26 11:30:57;;;;;;;;;;;22.70;99.90;;;;;;5073887;28;19919;-78
2022/10/26 11:33:33;;;;;;;;;;;22.70;99.90;;;;;;5086686;28;19912;-74
2022/10/26 11:36:02;;;;;;;;;;;22.60;99.90;;;;;;5086932;28;19951;-77
2022/10/26 11:38:47;;;;;;;;;;;22.60;99.90;;;;;;5086987;28;19912;-78
2022/10/26 11:41:20;;;;;;;;;;;22.50;99.90;;;;;;5086984;28;19916;-72
2022/10/26 11:43:57;;;;;;;;;;;22.50;99.80;;;;;;5085958;28;19912;-78
2022/10/26 11:46:29;;;;;;;;;;;22.50;99.90;;;;;;5086668;28;20028;-77
2022/10/26 11:49:14;;;;;;;;;;;22.50;99.90;;;;;;5086244;28;19923;-71
2022/10/26 11:51:41;;;;;;;;;;;22.50;99.90;;;;;;5086468;28;20586;-79
2022/10/26 11:54:28;;;;;;;;;;;22.50;99.90;;;;;;5085946;28;19912;-78
2022/10/26 11:56:56;;;;;;;;;;;22.50;99.90;;;;;;5085475;28;20567;-71
2022/10/26 11:59:24;;;;;;;;;;;22.40;99.90;;;;;;5086405;28;20007;-76
2022/10/26 12:01:52;;;;;;;;;;;22.40;99.90;;;;;;5086262;28;20630;-77
2022/10/26 12:04:21;;;;;;;;;;;22.40;99.90;;;;;;5086540;28;19912;-77
2022/10/26 12:06:49;;;;;;;;;;;22.40;99.90;;;;;;5086675;28;19912;-77
2022/10/26 12:09:18;;;;;;;;;;;22.40;99.90;;;;;;5086539;28;19917;-70
2022/10/26 12:11:44;;;;;;;;;;;22.40;99.90;;;;;;5085324;28;19919;-75
2022/10/26 12:14:14;;;;;;;;;;;22.30;99.90;;;;;;5086095;28;20590;-77
2022/10/26 12:16:48;;;;;;;;;;;22.30;99.90;;;;;;5086215;28;19912;-73
2022/10/26 12:19:19;;;;;;;;;;;22.30;99.90;;;;;;5086252;28;19912;-76
2022/10/26 12:21:48;;;;;;;;;;;22.30;99.90;;;;;;5085483;28;19982;-77
2022/10/26 12:24:26;;;;;;;;;;;22.30;99.90;;;;;;5085702;28;19918;-71
2022/10/26 12:26:57;;;;;;;;;;;22.30;99.90;;;;;;5085709;28;20015;-77
2022/10/26 12:29:35;;;;;;;;;;;22.30;99.90;;;;;;5085809;28;19912;-71
2022/10/26 12:32:21;;;;;;;;;;;22.30;99.90;;;;;;5088267;28;20278;-77
2022/10/26 12:34:48;;;;;;;;;;;22.30;99.90;;;;;;5094421;27;19913;-73
2022/10/26 12:37:31;;;;;;;;;;;22.30;99.90;;;;;;5093904;28;19908;-72
2022/10/26 12:40:16;;;;;;;;;;;22.30;99.90;;;;;;5093936;28;19916;-73
2022/10/26 12:42:43;;;;;;;;;;;22.30;99.90;;;;;;5093352;28;19969;-74
2022/10/26 12:45:27;;;;;;;;;;;22.30;99.90;;;;;;5093520;28;19912;-73
2022/10/26 12:47:54;;;;;;;;;;;22.20;99.90;;;;;;5093678;28;19960;-72
2022/10/26 12:50:23;;;;;;;;;;;22.30;99.90;;;;;;5093754;28;19917;-73
2022/10/26 12:53:00;;;;;;;;;;;22.30;99.90;;;;;;5093105;28;19909;-73
2022/10/26 12:55:32;;;;;;;;;;;22.20;99.90;;;;;;5093498;28;19961;-72
2022/10/26 12:57:59;;;;;;;;;;;22.20;99.90;;;;;;5093405;28;19915;-73
2022/10/26 13:00:26;;;;;;;;;;;22.20;99.90;;;;;;5093509;28;20130;-71
2022/10/26 13:02:53;;;;;;;;;;;22.20;99.90;;;;;;5092922;28;19924;-72
2022/10/26 13:05:41;;;;;;;;;;;22.20;99.90;;;;;;5093546;28;19908;-72
2022/10/26 13:08:12;;;;;;;;;;;22.20;99.90;;;;;;5093399;28;19915;-71
2022/10/26 13:10:43;;;;;;;;;;;22.10;99.90;;;;;;5093320;28;19908;-73
2022/10/26 13:13:21;;;;;;;;;;;22.10;99.90;;;;;;5092404;28;19908;-72
2022/10/26 13:15:55;;;;;;;;;;;22.10;99.90;;;;;;5093247;28;19953;-73
2022/10/26 13:18:22;;;;;;;;;;;22.10;99.90;;;;;;5093062;28;19908;-72
2022/10/26 13:20:51;;;;;;;;;;;22.10;99.90;;;;;;5092690;28;19912;-72
2022/10/26 13:23:26;;;;;;;;;;;22.10;99.90;;;;;;5092785;28;19916;-72
2022/10/26 13:26:03;;;;;;;;;;;22.10;99.90;;;;;;5093146;28;20674;-73
2022/10/26 13:28:32;;;;;;;;;;;22.10;99.90;;;;;;5092848;28;19908;-71
2022/10/26 13:30:58;;;;;;;;;;;22.10;99.90;;;;;;5092044;28;19934;-71
2022/10/26 13:33:29;;;;;;;;;;;22.10;99.90;;;;;;5092567;28;20382;-72
2022/10/26 13:35:58;;;;;;;;;;;22.10;99.90;;;;;;5092829;28;19922;-71
2022/10/26 13:38:28;;;;;;;;;;;22.10;99.90;;;;;;5092950;28;19948;-71
2022/10/26 13:40:59;;;;;;;;;;;22.00;99.90;;;;;;5092665;28;19912;-71
2022/10/26 13:43:27;;;;;;;;;;;22.00;99.90;;;;;;5092323;28;20367;-71
2022/10/26 13:46:00;;;;;;;;;;;22.00;99.90;;;;;;5092584;28;20328;-71
2022/10/26 13:48:37;;;;;;;;;;;22.00;99.90;;;;;;5092454;28;19919;-72
2022/10/26 13:51:10;;;;;;;;;;;21.90;99.90;;;;;;5091106;28;19912;-71
2022/10/26 13:53:38;;;;;;;;;;;21.90;99.90;;;;;;5092155;28;19928;-72
2022/10/26 13:56:26;;;;;;;;;;;21.80;99.90;;;;;;5092516;28;19916;-71
2022/10/26 13:59:04;;;;;;;;;;;21.80;99.90;;;;;;5092299;28;19964;-70
2022/10/26 14:01:30;;;;;;;;;;;21.70;99.90;;;;;;5092251;28;19923;-72
2022/10/26 14:03:57;;;;;;;;;;;21.70;99.90;;;;;;5092407;28;19969;-71
2022/10/26 14:06:32;;;;;;;;;;;21.70;99.90;;;;;;5092374;28;19912;-71
2022/10/26 14:09:04;;;;;;;;;;;21.60;99.90;;;;;;5092126;28;19914;-72
2022/10/26 14:11:36;;;;;;;;;;;21.60;99.90;;;;;;5091904;28;20286;-74
2022/10/26 14:14:03;;;;;;;;;;;21.50;99.90;;;;;;5092413;28;20362;-74
2022/10/26 14:16:31;;;;;;;;;;;21.50;99.90;;;;;;5092265;28;19954;-74
2022/10/26 14:18:58;;;;;;;;;;;21.60;99.90;;;;;;5092022;28;19919;-74
2022/10/26 14:21:25;;;;;;;;;;;21.60;99.90;;;;;;5091933;28;19927;-73
2022/10/26 14:23:58;;;;;;;;;;;21.50;99.90;;;;;;5091781;28;20677;-74
2022/10/26 14:26:30;;;;;;;;;;;21.60;99.90;;;;;;5091997;28;19912;-74
2022/10/26 14:28:58;;;;;;;;;;;21.50;99.90;;;;;;5091932;28;20046;-75
2022/10/26 14:31:26;;;;;;;;;;;21.50;99.90;;;;;;5092164;28;19920;-74
2022/10/26 14:33:54;;;;;;;;;;;21.50;99.90;;;;;;5092030;28;19935;-75
2022/10/26 14:36:23;;;;;;;;;;;21.50;99.90;;;;;;5092140;28;20005;-75
2022/10/26 14:38:53;;;;;;;;;;;21.50;99.90;;;;;;5091861;28;20005;-75
2022/10/26 14:41:20;;;;;;;;;;;21.50;99.90;;;;;;5091788;28;19927;-74
2022/10/26 14:43:47;;;;;;;;;;;21.50;99.90;;;;;;5093773;28;20550;-75
2022/10/26 14:46:15;;;;;;;;;;;21.50;99.90;;;;;;5096018;28;19919;-74
2022/10/26 14:48:52;;;;;;;;;;;21.50;99.90;;;;;;5095888;28;19916;-75
2022/10/26 14:51:20;;;;;;;;;;;21.40;99.90;;;;;;5096051;28;20004;-74
2022/10/26 14:53:49;;;;;;;;;;;21.40;99.90;;;;;;5095557;28;19998;-74
2022/10/26 14:56:38;;;;;;;;;;;21.30;99.90;;;;;;5095566;28;19908;-73
2022/10/26 14:59:25;;;;;;;;;;;21.20;99.90;;;;;;5095629;28;19912;-74
2022/10/26 15:01:58;;;;;;;;;;;21.20;99.90;;;;;;5095443;28;20274;-74
2022/10/26 15:04:37;;;;;;;;;;;21.10;99.90;;;;;;5095680;28;20045;-74
2022/10/26 15:07:07;;;;;;;;;;;21.10;99.90;;;;;;5095475;28;19920;-75
2022/10/26 15:09:55;;;;;;;;;;;21.00;99.90;;;;;;5094249;28;19908;-74
2022/10/26 15:12:37;;;;;;;;;;;21.00;99.90;;;;;;5095225;28;19912;-73
2022/10/26 15:15:19;;;;;;;;;;;21.00;99.90;;;;;;5095336;28;20355;-74
2022/10/26 15:17:53;;;;;;;;;;;21.00;99.90;;;;;;5095483;28;19912;-73
2022/10/26 15:20:24;;;;;;;;;;;21.00;99.90;;;;;;5095511;28;20266;-74
2022/10/26 15:22:58;;;;;;;;;;;21.00;99.90;;;;;;5094708;28;19974;-75
2022/10/26 15:25:28;;;;;;;;;;;21.00;99.90;;;;;;5095325;28;19951;-74
2022/10/26 15:28:08;;;;;;;;;;;21.00;99.90;;;;;;5095135;28;20266;-74
2022/10/26 15:30:34;;;;;;;;;;;21.00;99.90;;;;;;5095330;28;19965;-73
2022/10/26 15:33:14;;;;;;;;;;;21.00;99.90;;;;;;5094709;28;20369;-75
2022/10/26 15:35:41;;;;;;;;;;;20.90;99.90;;;;;;5095552;27;19958;-74
2022/10/26 15:38:10;;;;;;;;;;;20.90;99.90;;;;;;5095134;28;19908;-75
2022/10/26 15:40:41;;;;;;;;;;;20.80;99.90;;;;;;5095031;28;19954;-75
2022/10/26 15:43:09;;;;;;;;;;;20.80;99.90;;;;;;5094347;28;19916;-74
2022/10/26 15:45:46;;;;;;;;;;;20.80;99.90;;;;;;5094975;28;19988;-74
2022/10/26 15:48:18;;;;;;;;;;;20.80;99.90;;;;;;5094717;28;19919;-75
2022/10/26 15:50:44;;;;;;;;;;;20.70;99.90;;;;;;5094958;28;19915;-75
2022/10/26 15:53:15;;;;;;;;;;;20.70;99.90;;;;;;5094509;28;19931;-74
2022/10/26 15:55:42;;;;;;;;;;;20.70;99.90;;;;;;5094308;28;19908;-73
2022/10/26 15:58:10;;;;;;;;;;;20.60;99.90;;;;;;5094737;28;20015;-75
2022/10/26 16:00:37;;;;;;;;;;;20.70;99.90;;;;;;5094592;28;19912;-75
2022/10/26 16:03:03;;;;;;;;;;;20.60;99.90;;;;;;5093935;28;19927;-75
2022/10/26 16:05:30;;;;;;;;;;;20.60;99.90;;;;;;5094512;28;19963;-75